Buoy 46563

sailwx.info

Track history (hours):
 
Tides and Currents Weather Stations Pressure Air Temp Water Temp Dewpoint Dewpoint Depression Visibility Wind Speed Wind Dir Waves Ship Positions

Drifting buoy 46563

Last reported at 2015-Mar-30 06:00 UTC. Time now 2015-Mar-30 09:24 UTC.
Position N 21°05' W 131°13'.

Water temperature 22.2 ° C

Date/timePositionNaut miles runAvg speedWind from/ knotsBaromVisibWave heightAir tempDewpointWater temp
2015-Mar-30 06:00N 21°05' W 131°13'0 0.0 22.2
2015-Mar-30 05:00N 21°05' W 131°13'1 0.3 22.2
2015-Mar-30 01:00N 21°07' W 131°13'3 0.9 22.2
2015-Mar-29 22:00N 21°08' W 131°10'1 1.3 22.2
2015-Mar-29 21:00N 21°08' W 131°09'0 0.0 22.2
2015-Mar-29 19:00N 21°08' W 131°09'0 0.3 22.2
2015-Mar-29 18:00N 21°08' W 131°08'1 0.7 22.2
2015-Mar-29 17:00N 21°08' W 131°08'0 0.0 22.2
2015-Mar-29 16:00N 21°08' W 131°08'4 2.1 22.2
2015-Mar-29 14:00N 21°07' W 131°03'2 1.8 22.2
2015-Mar-29 13:00N 21°08' W 131°05'2 0.8 22.2
2015-Mar-29 11:00N 21°07' W 131°03'3 2.5 22.2
2015-Mar-29 10:00N 21°05' W 131°01'0 0.0 22.3
2015-Mar-29 09:00N 21°05' W 131°01'1 0.2 22.3
2015-Mar-29 06:00N 21°05' W 131°02'1 0.5 22.3
2015-Mar-29 05:00N 21°04' W 131°01'1 0.3 22.3
2015-Mar-29 03:00N 21°04' W 131°01'0 0.5 22.3
2015-Mar-29 02:00N 21°04' W 131°00'0 0.4 22.3
2015-Mar-29 01:00N 21°03' W 131°00'0 0.0 22.4
2015-Mar-29 00:00N 21°03' W 131°00'1 0.3 22.4
2015-Mar-28 21:00N 21°03' W 130°60'0 0.1 22.4
2015-Mar-28 20:00N 21°03' W 130°60'1 0.7 22.3
2015-Mar-28 19:00N 21°03' W 130°59'1 1.3 22.3
2015-Mar-28 18:00N 21°03' W 131°00'0 0.1 22.3
2015-Mar-28 14:00N 21°03' W 131°01'1 0.9 22.3
2015-Mar-28 13:00N 21°02' W 131°01'1 0.3 22.3
2015-Mar-28 11:00N 21°02' W 131°02'0 0.0 22.3
2015-Mar-28 10:00N 21°02' W 131°02'1 0.1 22.2
2015-Mar-28 06:00N 21°01' W 131°02'0 0.4 22.4
2015-Mar-28 05:00N 21°01' W 131°01'0 0.1 22.2
2015-Mar-28 02:00N 21°01' W 131°02'0 0.1 22.2
2015-Mar-28 01:00N 21°01' W 131°02'1 0.6 22.2
2015-Mar-28 00:00N 21°01' W 131°01'2 0.4 22.2
2015-Mar-27 19:00N 21°04' W 131°01'0 0.1 22.1
2015-Mar-27 18:00N 21°03' W 131°01'0 0.0 22.1
2015-Mar-27 17:00N 21°03' W 131°01'1 0.4 22.1
2015-Mar-27 14:00N 21°05' W 131°01'0 0.4 22.2
2015-Mar-27 13:00N 21°05' W 131°01'0 0.1 22.2
2015-Mar-27 11:00N 21°05' W 131°01'2 2.1 22.4
2015-Mar-27 10:00N 21°03' W 131°02'0 0.0 22.5
2015-Mar-27 06:00N 21°03' W 131°02'0 0.5 22.6
2015-Mar-27 05:00N 21°04' W 131°03'0 0.0 22.6
2015-Mar-27 04:00N 21°04' W 131°03'1 0.5 22.6
2015-Mar-27 03:00N 21°03' W 131°03'0 0.4 22.6
2015-Mar-27 02:00N 21°03' W 131°04'1 0.8 22.7
2015-Mar-27 01:00N 21°03' W 131°05'0 0.2 22.6
2015-Mar-27 00:00N 21°04' W 131°05'4 0.4 22.6
2015-Mar-26 14:00N 21°07' W 131°07'4 0.8 22.3
2015-Mar-26 09:00N 21°11' W 131°06'8 0.5 22.2
2015-Mar-25 17:00N 21°13' W 130°58'1 0.4 22.2
2015-Mar-25 15:00N 21°12' W 130°57'0 0.0 22.2
2015-Mar-25 14:00N 21°12' W 130°57'1 0.5 22.2
2015-Mar-25 12:00N 21°13' W 130°56'1 0.7 22.2
2015-Mar-25 11:00N 21°14' W 130°56'0 0.5 22.2
2015-Mar-25 10:00N 21°13' W 130°55'1 0.2 22.3
2015-Mar-25 06:00N 21°13' W 130°56'1 0.9 22.5
2015-Mar-25 05:00N 21°12' W 130°56'0 0.2 22.5
2015-Mar-25 04:00N 21°12' W 130°56'0 0.0 22.5
2015-Mar-25 03:00N 21°12' W 130°56'0 0.3 22.5
2015-Mar-25 02:00N 21°12' W 130°57'0 0.0 22.6
2015-Mar-25 01:00N 21°12' W 130°57'2 0.5 22.6
2015-Mar-24 21:00N 21°13' W 130°58'20 0.7 22.6
2015-Mar-23 15:00N 21°30' W 131°10'3 0.3 22.3
2015-Mar-23 06:00N 21°33' W 131°09'1 0.9 22.3
2015-Mar-23 05:00N 21°33' W 131°08'0 0.0 22.3
2015-Mar-23 04:00N 21°33' W 131°08'0 0.0 22.3
2015-Mar-23 03:00N 21°33' W 131°08'2 0.7 22.3
2015-Mar-23 00:00N 21°34' W 131°07'0 0.0 22.3
2015-Mar-22 22:00N 21°34' W 131°07'2 0.5 22.3
2015-Mar-22 18:00N 21°36' W 131°05'3 0.6 22.2
2015-Mar-22 14:00N 21°37' W 131°03'2 0.8 22.1
2015-Mar-22 11:00N 21°40' W 131°04'3 3.3 22.1
2015-Mar-22 10:00N 21°42' W 131°02'0 0.0 22.2
2015-Mar-22 06:00N 21°42' W 131°02'5 0.3 22.2
2015-Mar-21 14:00N 21°46' W 130°59'0 0.5 22.2
2015-Mar-21 13:00N 21°46' W 130°58'3 1.5 22.1
2015-Mar-21 11:00N 21°49' W 130°58'2 0.2 22.1
2015-Mar-21 01:00N 21°51' W 130°57'1 0.5 22.6
2015-Mar-20 23:00N 21°51' W 130°56'1 0.3 22.6
2015-Mar-20 21:00N 21°52' W 130°56'0 0.0 22.4
2015-Mar-20 18:00N 21°52' W 130°56'2 0.4 22.2
2015-Mar-20 13:00N 21°54' W 130°55'   22.2
Track history (hours):
 
Tides and Currents Weather Stations Pressure Air Temp Water Temp Dewpoint Dewpoint Depression Visibility Wind Speed Wind Dir Waves Ship Positions

Drifting buoy 46563

Last reported at 2015-Mar-30 06:00 UTC. Time now 2015-Mar-30 09:24 UTC.
Position N 21°05' W 131°13'.

Water temperature 22.2 ° C

Date/timePositionNaut miles runAvg speedWind from/ knotsBaromVisibWave heightAir tempDewpointWater temp
2015-Mar-30 06:00N 21°05' W 131°13'0 0.0 22.2
2015-Mar-30 05:00N 21°05' W 131°13'1 0.3 22.2
2015-Mar-30 01:00N 21°07' W 131°13'3 0.9 22.2
2015-Mar-29 22:00N 21°08' W 131°10'1 1.3 22.2
2015-Mar-29 21:00N 21°08' W 131°09'0 0.0 22.2
2015-Mar-29 19:00N 21°08' W 131°09'0 0.3 22.2
2015-Mar-29 18:00N 21°08' W 131°08'1 0.7 22.2
2015-Mar-29 17:00N 21°08' W 131°08'0 0.0 22.2
2015-Mar-29 16:00N 21°08' W 131°08'4 2.1 22.2
2015-Mar-29 14:00N 21°07' W 131°03'2 1.8 22.2
2015-Mar-29 13:00N 21°08' W 131°05'2 0.8 22.2
2015-Mar-29 11:00N 21°07' W 131°03'3 2.5 22.2
2015-Mar-29 10:00N 21°05' W 131°01'0 0.0 22.3
2015-Mar-29 09:00N 21°05' W 131°01'1 0.2 22.3
2015-Mar-29 06:00N 21°05' W 131°02'1 0.5 22.3
2015-Mar-29 05:00N 21°04' W 131°01'1 0.3 22.3
2015-Mar-29 03:00N 21°04' W 131°01'0 0.5 22.3
2015-Mar-29 02:00N 21°04' W 131°00'0 0.4 22.3
2015-Mar-29 01:00N 21°03' W 131°00'0 0.0 22.4
2015-Mar-29 00:00N 21°03' W 131°00'1 0.3 22.4
2015-Mar-28 21:00N 21°03' W 130°60'0 0.1 22.4
2015-Mar-28 20:00N 21°03' W 130°60'1 0.7 22.3
2015-Mar-28 19:00N 21°03' W 130°59'1 1.3 22.3
2015-Mar-28 18:00N 21°03' W 131°00'0 0.1 22.3
2015-Mar-28 14:00N 21°03' W 131°01'1 0.9 22.3
2015-Mar-28 13:00N 21°02' W 131°01'1 0.3 22.3
2015-Mar-28 11:00N 21°02' W 131°02'0 0.0 22.3
2015-Mar-28 10:00N 21°02' W 131°02'1 0.1 22.2
2015-Mar-28 06:00N 21°01' W 131°02'0 0.4 22.4
2015-Mar-28 05:00N 21°01' W 131°01'0 0.1 22.2
2015-Mar-28 02:00N 21°01' W 131°02'0 0.1 22.2
2015-Mar-28 01:00N 21°01' W 131°02'1 0.6 22.2
2015-Mar-28 00:00N 21°01' W 131°01'2 0.4 22.2
2015-Mar-27 19:00N 21°04' W 131°01'0 0.1 22.1
2015-Mar-27 18:00N 21°03' W 131°01'0 0.0 22.1
2015-Mar-27 17:00N 21°03' W 131°01'1 0.4 22.1
2015-Mar-27 14:00N 21°05' W 131°01'0 0.4 22.2
2015-Mar-27 13:00N 21°05' W 131°01'0 0.1 22.2
2015-Mar-27 11:00N 21°05' W 131°01'2 2.1 22.4
2015-Mar-27 10:00N 21°03' W 131°02'0 0.0 22.5
2015-Mar-27 06:00N 21°03' W 131°02'0 0.5 22.6
2015-Mar-27 05:00N 21°04' W 131°03'0 0.0 22.6
2015-Mar-27 04:00N 21°04' W 131°03'1 0.5 22.6
2015-Mar-27 03:00N 21°03' W 131°03'0 0.4 22.6
2015-Mar-27 02:00N 21°03' W 131°04'1 0.8 22.7
2015-Mar-27 01:00N 21°03' W 131°05'0 0.2 22.6
2015-Mar-27 00:00N 21°04' W 131°05'4 0.4 22.6
2015-Mar-26 14:00N 21°07' W 131°07'4 0.8 22.3
2015-Mar-26 09:00N 21°11' W 131°06'8 0.5 22.2
2015-Mar-25 17:00N 21°13' W 130°58'1 0.4 22.2
2015-Mar-25 15:00N 21°12' W 130°57'0 0.0 22.2
2015-Mar-25 14:00N 21°12' W 130°57'1 0.5 22.2
2015-Mar-25 12:00N 21°13' W 130°56'1 0.7 22.2
2015-Mar-25 11:00N 21°14' W 130°56'0 0.5 22.2
2015-Mar-25 10:00N 21°13' W 130°55'1 0.2 22.3
2015-Mar-25 06:00N 21°13' W 130°56'1 0.9 22.5
2015-Mar-25 05:00N 21°12' W 130°56'0 0.2 22.5
2015-Mar-25 04:00N 21°12' W 130°56'0 0.0 22.5
2015-Mar-25 03:00N 21°12' W 130°56'0 0.3 22.5
2015-Mar-25 02:00N 21°12' W 130°57'0 0.0 22.6
2015-Mar-25 01:00N 21°12' W 130°57'2 0.5 22.6
2015-Mar-24 21:00N 21°13' W 130°58'20 0.7 22.6
2015-Mar-23 15:00N 21°30' W 131°10'3 0.3 22.3
2015-Mar-23 06:00N 21°33' W 131°09'1 0.9 22.3
2015-Mar-23 05:00N 21°33' W 131°08'0 0.0 22.3
2015-Mar-23 04:00N 21°33' W 131°08'0 0.0 22.3
2015-Mar-23 03:00N 21°33' W 131°08'2 0.7 22.3
2015-Mar-23 00:00N 21°34' W 131°07'0 0.0 22.3
2015-Mar-22 22:00N 21°34' W 131°07'2 0.5 22.3
2015-Mar-22 18:00N 21°36' W 131°05'3 0.6 22.2
2015-Mar-22 14:00N 21°37' W 131°03'2 0.8 22.1
2015-Mar-22 11:00N 21°40' W 131°04'3 3.3 22.1
2015-Mar-22 10:00N 21°42' W 131°02'0 0.0 22.2
2015-Mar-22 06:00N 21°42' W 131°02'5 0.3 22.2
2015-Mar-21 14:00N 21°46' W 130°59'0 0.5 22.2
2015-Mar-21 13:00N 21°46' W 130°58'3 1.5 22.1
2015-Mar-21 11:00N 21°49' W 130°58'2 0.2 22.1
2015-Mar-21 01:00N 21°51' W 130°57'1 0.5 22.6
2015-Mar-20 23:00N 21°51' W 130°56'1 0.3 22.6
2015-Mar-20 21:00N 21°52' W 130°56'0 0.0 22.4
2015-Mar-20 18:00N 21°52' W 130°56'2 0.4 22.2
2015-Mar-20 13:00N 21°54' W 130°55'   22.2

Dump ship's entire track history